Time;durP1;ratioP1;P1;durP2;ratioP2;P2;SDS_P1;SDS_P2;PMS_P1;PMS_P2;Temp;Humidity;BMP_temperature;BMP_pressure;BME280_temperature;BME280_humidity;BME280_pressure;Samples;Min_cycle;Max_cycle;Signal;HPM_P1;HPM_P2
2022/10/29 00:00:50;;;;;;;22.63;6.80;;;16.70;99.90;;;;;;5098849;28;20415;-75
2022/10/29 00:03:17;;;;;;;17.90;5.95;;;16.60;99.90;;;;;;5079101;28;20044;-76
2022/10/29 00:05:43;;;;;;;14.90;5.72;;;16.60;99.90;;;;;;5082464;28;20024;-77
2022/10/29 00:08:09;;;;;;;15.93;5.22;;;16.60;99.90;;;;;;5094910;28;20031;-74
2022/10/29 00:10:36;;;;;;;21.25;6.50;;;16.60;99.90;;;;;;5095262;28;20026;-75
2022/10/29 00:13:02;;;;;;;19.80;5.70;;;16.60;99.90;;;;;;5081149;28;20032;-75
2022/10/29 00:15:30;;;;;;;17.80;6.53;;;16.60;99.90;;;;;;5088576;28;20012;-75
2022/10/29 00:17:57;;;;;;;14.60;5.95;;;16.50;99.90;;;;;;5093493;28;20484;-76
2022/10/29 00:20:22;;;;;;;17.50;6.53;;;16.50;99.90;;;;;;5099131;28;20078;-77
2022/10/29 00:22:51;;;;;;;19.52;6.55;;;16.50;99.90;;;;;;5100624;28;20186;-74
2022/10/29 00:25:17;;;;;;;18.23;6.38;;;16.50;99.90;;;;;;5095811;28;20036;-77
2022/10/29 00:27:42;;;;;;;22.08;6.60;;;16.50;99.90;;;;;;5080133;28;20031;-77
2022/10/29 00:30:09;;;;;;;17.25;6.65;;;16.50;99.90;;;;;;5081971;28;20107;-76
2022/10/29 00:32:34;;;;;;;23.33;7.30;;;16.40;99.90;;;;;;5093335;28;20100;-75
2022/10/29 00:35:01;;;;;;;15.57;6.10;;;16.40;99.90;;;;;;5088308;28;20102;-76
2022/10/29 00:37:27;;;;;;;20.35;6.15;;;16.40;99.90;;;;;;5083812;28;20045;-76
2022/10/29 00:39:52;;;;;;;21.52;6.25;;;16.30;99.90;;;;;;5107187;28;20054;-77
2022/10/29 00:42:19;;;;;;;18.95;6.35;;;16.30;99.90;;;;;;5100280;28;20044;-74
2022/10/29 00:44:44;;;;;;;15.77;6.15;;;16.30;99.90;;;;;;5086467;28;20028;-75
2022/10/29 00:47:26;;;;;;;19.20;7.35;;;16.30;99.90;;;;;;5104420;28;20031;-77
2022/10/29 00:50:01;;;;;;;15.55;6.22;;;16.30;99.90;;;;;;5099024;28;20107;-76
2022/10/29 00:52:31;;;;;;;26.25;7.45;;;16.20;99.90;;;;;;5085250;28;20015;-76
2022/10/29 00:55:01;;;;;;;25.52;6.85;;;16.20;99.90;;;;;;5101457;27;20119;-76
2022/10/29 00:57:34;;;;;;;23.55;6.57;;;16.20;99.90;;;;;;5104361;27;20031;-76
2022/10/29 01:00:00;;;;;;;24.40;6.80;;;16.20;99.90;;;;;;5103852;28;20145;-76
2022/10/29 01:02:26;;;;;;;25.77;7.03;;;16.20;99.90;;;;;;5105232;28;20103;-76
2022/10/29 01:04:53;;;;;;;22.33;6.82;;;16.20;99.90;;;;;;5090586;28;20039;-76
2022/10/29 01:07:21;;;;;;;25.02;7.40;;;16.10;99.90;;;;;;5102093;28;20032;-79
2022/10/29 01:09:47;;;;;;;20.67;6.55;;;16.10;99.90;;;;;;5086355;28;20020;-76
2022/10/29 01:12:31;;;;;;;23.05;6.20;;;16.10;99.90;;;;;;5083288;28;20031;-75
2022/10/29 01:15:13;;;;;;;19.90;6.47;;;16.10;99.90;;;;;;5092050;28;20111;-76
2022/10/29 01:17:44;;;;;;;26.73;6.00;;;16.00;99.90;;;;;;5097187;28;20608;-75
2022/10/29 01:20:30;;;;;;;21.08;6.75;;;16.00;99.90;;;;;;5096349;28;20044;-75
2022/10/29 01:23:09;;;;;;;21.02;6.20;;;16.00;99.90;;;;;;5098611;28;20022;-76
2022/10/29 01:25:46;;;;;;;24.67;5.72;;;16.00;99.90;;;;;;5098474;27;20042;-75
2022/10/29 01:28:31;;;;;;;21.33;6.57;;;16.00;99.90;;;;;;5104110;28;20403;-74
2022/10/29 01:31:05;;;;;;;16.92;5.70;;;15.90;99.90;;;;;;5103795;28;20031;-76
2022/10/29 01:34:03;;;;;;;21.23;5.72;;;15.90;99.90;;;;;;5091000;28;20023;-76
2022/10/29 01:37:04;;;;;;;15.98;5.10;;;15.90;99.90;;;;;;5095212;28;20028;-76
2022/10/29 01:39:54;;;;;;;20.88;5.70;;;15.90;99.90;;;;;;5056808;28;20115;-75
2022/10/29 01:42:28;;;;;;;23.10;7.15;;;15.90;99.90;;;;;;5069852;28;20039;-76
2022/10/29 01:45:02;;;;;;;22.33;5.25;;;15.80;99.90;;;;;;5103656;28;20422;-77
2022/10/29 01:47:35;;;;;;;22.40;5.93;;;15.80;99.90;;;;;;5082723;28;20028;-76
2022/10/29 01:50:07;;;;;;;17.02;5.38;;;15.80;99.90;;;;;;5097929;28;20047;-76
2022/10/29 01:52:36;;;;;;;24.45;6.47;;;15.80;99.90;;;;;;5098245;28;20490;-76
2022/10/29 01:55:02;;;;;;;20.30;5.85;;;15.80;99.90;;;;;;5097477;28;20117;-76
2022/10/29 01:57:35;;;;;;;19.20;6.45;;;15.70;99.90;;;;;;5090687;28;20030;-76
2022/10/29 02:00:07;;;;;;;19.15;5.85;;;15.70;99.90;;;;;;5090082;28;20625;-77
2022/10/29 02:02:38;;;;;;;19.95;5.50;;;15.70;99.90;;;;;;5102174;28;20032;-75
2022/10/29 02:05:33;;;;;;;14.07;5.22;;;15.70;99.90;;;;;;5086195;28;20028;-75
2022/10/29 02:08:20;;;;;;;21.42;6.57;;;15.70;99.90;;;;;;5063482;28;20441;-75
2022/10/29 02:11:02;;;;;;;17.45;5.53;;;15.60;99.90;;;;;;5089357;28;20047;-75
2022/10/29 02:13:38;;;;;;;23.92;5.88;;;15.60;99.90;;;;;;5079629;28;20028;-76
2022/10/29 02:16:07;;;;;;;21.38;5.78;;;15.60;99.90;;;;;;5096875;27;20030;-75
2022/10/29 02:18:41;;;;;;;21.88;5.82;;;15.60;99.90;;;;;;5096373;28;20020;-76
2022/10/29 02:21:07;;;;;;;19.48;6.47;;;15.50;99.90;;;;;;5097015;28;20038;-75
2022/10/29 02:23:32;;;;;;;23.20;7.70;;;15.50;99.90;;;;;;5098517;27;20036;-75
2022/10/29 02:25:58;;;;;;;23.05;6.30;;;15.50;99.90;;;;;;5099738;28;20028;-77
2022/10/29 02:28:24;;;;;;;19.20;6.28;;;15.50;99.90;;;;;;5105346;27;20032;-76
2022/10/29 02:30:50;;;;;;;21.33;7.03;;;15.40;99.90;;;;;;5102518;28;20032;-76
2022/10/29 02:33:16;;;;;;;19.10;5.85;;;15.40;99.90;;;;;;5088317;28;20030;-76
2022/10/29 02:35:41;;;;;;;18.45;5.57;;;15.40;99.90;;;;;;5098117;28;20028;-76
2022/10/29 02:38:07;;;;;;;15.25;6.28;;;15.40;99.90;;;;;;5100941;28;20081;-75
2022/10/29 02:40:34;;;;;;;18.15;6.43;;;15.40;99.90;;;;;;5083689;28;20076;-75
2022/10/29 02:42:59;;;;;;;15.85;6.20;;;15.30;99.90;;;;;;5071814;28;20034;-75
2022/10/29 02:45:26;;;;;;;18.17;6.43;;;15.30;99.90;;;;;;5096423;28;20023;-76
2022/10/29 02:47:52;;;;;;;20.38;7.20;;;15.30;99.90;;;;;;5100287;28;20025;-79
2022/10/29 02:50:17;;;;;;;17.83;6.82;;;15.30;99.90;;;;;;5089811;28;20069;-75
2022/10/29 02:52:43;;;;;;;18.63;6.32;;;15.30;99.90;;;;;;5091797;28;20509;-76
2022/10/29 02:55:09;;;;;;;24.38;8.13;;;15.30;99.90;;;;;;5085235;28;20047;-76
2022/10/29 02:57:34;;;;;;;15.43;6.10;;;15.30;99.90;;;;;;5102196;28;20020;-76
2022/10/29 03:00:00;;;;;;;22.13;7.03;;;15.30;99.90;;;;;;5098330;28;20024;-76
2022/10/29 03:02:25;;;;;;;17.85;7.53;;;15.30;99.90;;;;;;5088290;28;20554;-74
2022/10/29 03:04:51;;;;;;;19.90;6.82;;;15.30;99.90;;;;;;5093784;28;20538;-76
2022/10/29 03:07:17;;;;;;;19.55;6.97;;;15.30;99.90;;;;;;5070667;28;20042;-76
2022/10/29 03:09:45;;;;;;;15.57;6.22;;;15.40;99.90;;;;;;5069655;28;20521;-77
2022/10/29 03:12:10;;;;;;;23.35;6.95;;;15.40;99.90;;;;;;5095449;28;20043;-78
2022/10/29 03:14:37;;;;;;;18.15;6.40;;;15.40;99.90;;;;;;5069352;28;20104;-79
2022/10/29 03:17:03;;;;;;;16.83;6.43;;;15.40;99.90;;;;;;5091333;28;20028;-77
2022/10/29 03:19:28;;;;;;;25.85;7.85;;;15.40;99.90;;;;;;5091476;28;20042;-76
2022/10/29 03:21:54;;;;;;;21.48;7.43;;;15.40;99.90;;;;;;5086542;28;20056;-76
2022/10/29 03:24:20;;;;;;;22.67;7.72;;;15.40;99.90;;;;;;5091990;28;20065;-76
2022/10/29 03:26:45;;;;;;;20.02;7.50;;;15.40;99.90;;;;;;5097165;28;20235;-77
2022/10/29 03:29:11;;;;;;;25.10;7.47;;;15.40;99.90;;;;;;5099382;28;20024;-76
2022/10/29 03:31:37;;;;;;;20.20;8.50;;;15.40;99.90;;;;;;5089443;28;20032;-77
2022/10/29 03:34:02;;;;;;;25.25;8.38;;;15.40;99.90;;;;;;5100612;28;20073;-76
2022/10/29 03:36:28;;;;;;;24.27;7.45;;;15.40;99.90;;;;;;5089394;28;20024;-77
2022/10/29 03:38:57;;;;;;;20.05;7.63;;;15.40;99.90;;;;;;5105824;27;20031;-77
2022/10/29 03:41:22;;;;;;;22.17;7.43;;;15.40;99.90;;;;;;5095201;28;20039;-77
2022/10/29 03:43:48;;;;;;;20.95;7.68;;;15.40;99.90;;;;;;5105188;28;20031;-76
2022/10/29 03:46:14;;;;;;;24.52;8.18;;;15.40;99.90;;;;;;5103610;28;20067;-76
2022/10/29 03:48:39;;;;;;;21.25;7.97;;;15.40;99.90;;;;;;5094332;28;20038;-78
2022/10/29 03:51:06;;;;;;;19.35;7.63;;;15.40;99.90;;;;;;5106196;28;20059;-76
2022/10/29 03:53:33;;;;;;;24.58;8.30;;;15.40;99.90;;;;;;5091694;28;20020;-74
2022/10/29 03:55:59;;;;;;;21.38;7.63;;;15.40;99.90;;;;;;5087370;28;20035;-75
2022/10/29 03:58:26;;;;;;;20.95;7.78;;;15.40;99.90;;;;;;5069565;28;20223;-75
2022/10/29 04:01:04;;;;;;;19.92;8.23;;;15.40;99.90;;;;;;5070204;28;20062;-76
2022/10/29 04:03:31;;;;;;;22.15;8.65;;;15.40;99.90;;;;;;5102490;28;20031;-80
2022/10/29 04:05:58;;;;;;;16.90;7.53;;;15.50;99.90;;;;;;5083655;28;20433;-76
2022/10/29 04:08:24;;;;;;;25.52;8.32;;;15.40;99.90;;;;;;5090797;28;20039;-76
2022/10/29 04:10:51;;;;;;;23.08;8.75;;;15.40;99.90;;;;;;5087550;28;20024;-76
2022/10/29 04:13:19;;;;;;;20.58;8.52;;;15.50;99.90;;;;;;5086387;28;20028;-75
2022/10/29 04:15:46;;;;;;;18.60;8.10;;;15.50;99.90;;;;;;5088855;28;20024;-76
2022/10/29 04:18:13;;;;;;;20.73;7.65;;;15.50;99.90;;;;;;5066451;28;20032;-75
2022/10/29 04:20:39;;;;;;;21.58;8.40;;;15.50;99.90;;;;;;5088261;28;21005;-75
2022/10/29 04:23:05;;;;;;;18.63;6.60;;;15.50;99.90;;;;;;5084897;28;20080;-75
2022/10/29 04:25:32;;;;;;;22.13;7.22;;;15.50;99.90;;;;;;5103604;27;20091;-77
2022/10/29 04:27:58;;;;;;;23.63;8.30;;;15.50;99.90;;;;;;5105704;28;20028;-75
2022/10/29 04:30:24;;;;;;;24.00;7.63;;;15.50;99.90;;;;;;5104530;28;20032;-75
2022/10/29 04:32:50;;;;;;;22.63;8.27;;;15.40;99.90;;;;;;5093455;28;20013;-77
2022/10/29 04:35:17;;;;;;;20.60;8.52;;;15.40;99.90;;;;;;5101398;28;20024;-75
2022/10/29 04:37:42;;;;;;;21.00;8.70;;;15.40;99.90;;;;;;5095293;28;20157;-76
2022/10/29 04:40:08;;;;;;;27.65;9.15;;;15.40;99.90;;;;;;5074946;28;20118;-76
2022/10/29 04:42:36;;;;;;;24.70;9.45;;;15.30;99.90;;;;;;5086281;28;20494;-75
2022/10/29 04:45:04;;;;;;;25.95;8.35;;;15.30;99.90;;;;;;5096803;27;20028;-75
2022/10/29 04:47:31;;;;;;;23.55;8.52;;;15.30;99.90;;;;;;5105215;28;20035;-75
2022/10/29 04:49:57;;;;;;;19.52;9.68;;;15.30;99.90;;;;;;5103116;27;20499;-81
2022/10/29 04:52:23;;;;;;;21.83;9.05;;;15.30;99.90;;;;;;5088653;28;20028;-76
2022/10/29 04:54:50;;;;;;;22.60;7.78;;;15.30;99.90;;;;;;5112066;28;20030;-76
2022/10/29 04:57:16;;;;;;;24.77;8.73;;;15.40;99.90;;;;;;5081686;28;21059;-75
2022/10/29 04:59:41;;;;;;;21.05;7.82;;;15.40;99.90;;;;;;5116252;27;20019;-74
2022/10/29 05:02:08;;;;;;;18.60;8.23;;;15.40;99.90;;;;;;5089270;28;20043;-76
2022/10/29 05:04:34;;;;;;;17.17;7.60;;;15.40;99.90;;;;;;5104356;27;20067;-81
2022/10/29 05:06:59;;;;;;;22.20;8.18;;;15.40;99.90;;;;;;5106067;28;20052;-76
2022/10/29 05:09:25;;;;;;;19.88;8.57;;;15.40;99.90;;;;;;5084790;28;20074;-79
2022/10/29 05:11:51;;;;;;;20.75;9.35;;;15.40;99.90;;;;;;5089269;28;20029;-77
2022/10/29 05:14:16;;;;;;;19.90;8.90;;;15.40;99.90;;;;;;5080814;28;20260;-77
2022/10/29 05:16:42;;;;;;;29.40;9.45;;;15.40;99.90;;;;;;5087552;28;20054;-78
2022/10/29 05:19:08;;;;;;;24.67;10.00;;;15.50;99.90;;;;;;5087681;28;20043;-76
2022/10/29 05:21:34;;;;;;;18.13;9.90;;;15.40;99.90;;;;;;5105264;28;20031;-76
2022/10/29 05:24:00;;;;;;;30.25;10.38;;;15.40;99.90;;;;;;5102782;27;20093;-76
2022/10/29 05:26:28;;;;;;;20.45;9.55;;;15.40;99.90;;;;;;5101338;28;20028;-76
2022/10/29 05:28:54;;;;;;;31.45;10.32;;;15.40;99.90;;;;;;5088090;28;20024;-76
2022/10/29 05:31:20;;;;;;;24.25;11.02;;;15.40;99.90;;;;;;5101436;27;20084;-78
2022/10/29 05:33:45;;;;;;;19.80;10.27;;;15.40;99.90;;;;;;5082953;28;20024;-76
2022/10/29 05:36:12;;;;;;;24.25;9.55;;;15.40;99.90;;;;;;5096739;28;20047;-76
2022/10/29 05:38:38;;;;;;;20.58;9.98;;;15.40;99.90;;;;;;5067518;28;20068;-76
2022/10/29 05:41:03;;;;;;;27.67;10.93;;;15.40;99.90;;;;;;5081404;28;20032;-76
2022/10/29 05:43:29;;;;;;;23.95;10.63;;;15.40;99.90;;;;;;5086663;28;20036;-77
2022/10/29 05:45:55;;;;;;;28.75;9.38;;;15.30;99.90;;;;;;5103310;27;20023;-77
2022/10/29 05:48:20;;;;;;;34.03;9.77;;;15.30;99.90;;;;;;5100026;28;20054;-77
2022/10/29 05:50:46;;;;;;;23.60;10.20;;;15.40;99.90;;;;;;5089614;28;20137;-76
2022/10/29 05:53:13;;;;;;;20.55;8.85;;;15.30;99.90;;;;;;5088066;28;20071;-76
2022/10/29 05:55:41;;;;;;;21.25;9.32;;;15.30;99.90;;;;;;5085303;28;20024;-76
2022/10/29 05:58:10;;;;;;;25.42;10.15;;;15.30;99.90;;;;;;5106023;28;20032;-74
2022/10/29 06:00:38;;;;;;;24.88;9.63;;;15.30;99.90;;;;;;5101270;28;20043;-76
2022/10/29 06:03:08;;;;;;;25.08;9.90;;;15.30;99.90;;;;;;5107979;28;20092;-76
2022/10/29 06:05:36;;;;;;;27.73;10.00;;;15.30;99.90;;;;;;5104078;28;20500;-77
2022/10/29 06:08:05;;;;;;;34.90;10.32;;;15.30;99.90;;;;;;5095866;27;20032;-76
2022/10/29 06:10:30;;;;;;;25.50;10.05;;;15.30;99.90;;;;;;5101381;28;20028;-76
2022/10/29 06:12:56;;;;;;;26.00;10.27;;;15.20;99.90;;;;;;5100071;28;20077;-74
2022/10/29 06:15:22;;;;;;;20.10;9.80;;;15.20;99.90;;;;;;5099264;28;20124;-76
2022/10/29 06:17:48;;;;;;;23.13;8.90;;;15.20;99.90;;;;;;5087293;28;20059;-75
2022/10/29 06:20:16;;;;;;;24.05;8.95;;;15.20;99.90;;;;;;5089760;28;20043;-76
2022/10/29 06:22:41;;;;;;;22.83;10.32;;;15.20;99.90;;;;;;5102576;28;20027;-76
2022/10/29 06:25:09;;;;;;;27.80;9.93;;;15.20;99.90;;;;;;5089945;28;20035;-76
2022/10/29 06:27:35;;;;;;;20.40;9.38;;;15.10;99.90;;;;;;5088511;28;20038;-75
2022/10/29 06:30:02;;;;;;;21.10;9.23;;;15.10;99.90;;;;;;5074519;28;20027;-77
2022/10/29 06:32:27;;;;;;;17.90;8.70;;;15.00;99.90;;;;;;5093658;28;20548;-74
2022/10/29 06:34:54;;;;;;;18.23;8.38;;;15.00;99.90;;;;;;5068361;28;20057;-80
2022/10/29 06:37:20;;;;;;;18.95;9.02;;;14.90;99.90;;;;;;5089050;28;20035;-77
2022/10/29 06:39:45;;;;;;;23.95;9.48;;;14.90;99.90;;;;;;5086469;28;20024;-78
2022/10/29 06:42:11;;;;;;;21.23;8.93;;;14.90;99.90;;;;;;5086545;28;20127;-77
2022/10/29 06:44:37;;;;;;;17.83;8.30;;;14.90;99.90;;;;;;5087849;28;20038;-76
2022/10/29 06:47:02;;;;;;;28.58;8.80;;;14.90;99.90;;;;;;5084293;28;20396;-77
2022/10/29 06:49:29;;;;;;;22.73;9.35;;;14.90;99.90;;;;;;5103075;27;20028;-76
2022/10/29 06:51:55;;;;;;;22.25;8.85;;;14.90;99.90;;;;;;5083189;28;20024;-77
2022/10/29 06:54:21;;;;;;;21.98;9.63;;;14.90;99.90;;;;;;5098192;27;20030;-76
2022/10/29 06:56:48;;;;;;;20.20;8.13;;;14.80;99.90;;;;;;5101828;27;20016;-76
2022/10/29 06:59:14;;;;;;;21.05;8.65;;;14.90;99.90;;;;;;5099256;28;20023;-76
2022/10/29 07:01:39;;;;;;;21.70;9.52;;;14.80;99.90;;;;;;5098201;27;20024;-78
2022/10/29 07:04:05;;;;;;;22.60;8.73;;;14.80;99.90;;;;;;5080350;28;20031;-77
2022/10/29 07:06:33;;;;;;;24.60;10.38;;;14.80;99.90;;;;;;5093390;28;20027;-77
2022/10/29 07:08:59;;;;;;;21.88;9.32;;;14.80;99.90;;;;;;5104102;28;20051;-77
2022/10/29 07:11:25;;;;;;;26.75;9.63;;;14.80;99.90;;;;;;5091264;28;20055;-77
2022/10/29 07:13:51;;;;;;;21.25;9.73;;;14.80;99.90;;;;;;5089132;28;20027;-76
2022/10/29 07:16:17;;;;;;;21.88;9.63;;;14.80;99.90;;;;;;5082443;28;20032;-78
2022/10/29 07:18:43;;;;;;;19.83;9.43;;;14.90;99.90;;;;;;5105260;27;20491;-77
2022/10/29 07:21:16;;;;;;;22.27;10.93;;;14.90;99.90;;;;;;5082541;28;20028;-76
2022/10/29 07:23:43;;;;;;;24.38;10.23;;;15.00;99.90;;;;;;5090084;28;21219;-76
2022/10/29 07:26:09;;;;;;;23.08;11.43;;;15.00;99.90;;;;;;5076929;28;20023;-76
2022/10/29 07:28:34;;;;;;;28.48;11.57;;;15.00;99.90;;;;;;5097844;28;20020;-78
2022/10/29 07:31:00;;;;;;;25.30;12.10;;;15.00;99.90;;;;;;5075547;28;20023;-77
2022/10/29 07:33:32;;;;;;;24.10;11.93;;;15.00;99.90;;;;;;5083961;28;20024;-76
2022/10/29 07:35:58;;;;;;;23.35;11.73;;;15.00;99.90;;;;;;5101618;28;20038;-77
2022/10/29 07:38:25;;;;;;;30.67;13.98;;;15.00;99.90;;;;;;5101403;28;20028;-77
2022/10/29 07:40:51;;;;;;;25.83;12.77;;;15.00;99.90;;;;;;5102295;28;20057;-77
2022/10/29 07:43:19;;;;;;;26.70;13.13;;;15.00;99.90;;;;;;5102583;28;20024;-76
2022/10/29 07:45:49;;;;;;;25.88;12.70;;;15.00;99.90;;;;;;5097400;27;20110;-79
2022/10/29 07:48:18;;;;;;;26.38;13.63;;;15.00;99.90;;;;;;5092639;28;20119;-77
2022/10/29 07:50:44;;;;;;;22.08;12.50;;;15.00;99.90;;;;;;5098766;28;20024;-78
2022/10/29 07:53:11;;;;;;;24.55;12.20;;;15.10;99.90;;;;;;5080007;28;20377;-74
2022/10/29 07:55:37;;;;;;;35.42;13.73;;;15.10;99.90;;;;;;5096337;28;20107;-74
2022/10/29 07:58:09;;;;;;;21.90;11.73;;;15.10;99.90;;;;;;5084286;28;20119;-78
2022/10/29 08:00:38;;;;;;;23.92;12.68;;;15.10;99.90;;;;;;5091262;28;20057;-77
2022/10/29 08:03:05;;;;;;;29.05;14.10;;;15.10;99.90;;;;;;5097918;28;20043;-76
2022/10/29 08:05:32;;;;;;;30.98;13.73;;;15.10;99.90;;;;;;5081701;28;20084;-77
2022/10/29 08:07:58;;;;;;;31.83;15.25;;;15.20;99.90;;;;;;5088582;28;20073;-76
2022/10/29 08:10:25;;;;;;;25.98;14.88;;;15.20;99.90;;;;;;5080700;28;20058;-76
2022/10/29 08:12:56;;;;;;;27.13;14.13;;;15.20;99.90;;;;;;5104552;28;20027;-75
2022/10/29 08:15:24;;;;;;;29.45;15.80;;;15.30;99.90;;;;;;5070281;28;20024;-75
2022/10/29 08:17:50;;;;;;;36.05;16.85;;;15.20;99.90;;;;;;5069399;28;20020;-76
2022/10/29 08:20:17;;;;;;;31.35;15.38;;;15.20;99.90;;;;;;5070653;28;20069;-76
2022/10/29 08:22:43;;;;;;;30.77;16.27;;;15.20;99.90;;;;;;5079548;28;20043;-76
2022/10/29 08:25:11;;;;;;;35.08;16.85;;;15.30;99.90;;;;;;5084000;28;20036;-75
2022/10/29 08:27:37;;;;;;;33.42;17.45;;;15.30;99.90;;;;;;5073528;28;20027;-75
2022/10/29 08:30:04;;;;;;;34.95;17.83;;;15.30;99.90;;;;;;5095855;28;20429;-76
2022/10/29 08:32:31;;;;;;;40.80;16.95;;;15.40;99.90;;;;;;5100041;28;20071;-77
2022/10/29 08:34:56;;;;;;;35.17;16.73;;;15.40;99.90;;;;;;5086534;28;20541;-75
2022/10/29 08:37:22;;;;;;;28.35;15.65;;;15.40;99.90;;;;;;5102564;28;20050;-76
2022/10/29 08:39:48;;;;;;;26.65;15.27;;;15.40;99.90;;;;;;5087445;28;20027;-76
2022/10/29 08:42:52;;;;;;;28.88;16.00;;;15.40;99.90;;;;;;5097739;28;20031;-76
2022/10/29 08:45:27;;;;;;;35.75;16.70;;;15.50;99.90;;;;;;5066241;28;20027;-75
2022/10/29 08:48:15;;;;;;;31.95;16.25;;;15.50;99.90;;;;;;5083641;28;20042;-76
2022/10/29 08:50:52;;;;;;;35.72;17.63;;;15.40;99.90;;;;;;5083890;28;20020;-76
2022/10/29 08:53:23;;;;;;;33.63;16.63;;;15.40;99.90;;;;;;5070916;28;20032;-77
2022/10/29 08:55:49;;;;;;;32.35;16.38;;;15.40;99.90;;;;;;5079182;28;20024;-76
2022/10/29 08:58:34;;;;;;;43.17;20.05;;;15.40;99.90;;;;;;5098085;28;20028;-75
2022/10/29 09:00:59;;;;;;;35.85;17.45;;;15.30;99.90;;;;;;5094962;28;20098;-77
2022/10/29 09:03:28;;;;;;;38.58;18.95;;;15.40;99.90;;;;;;5087600;28;20201;-76
2022/10/29 09:06:00;;;;;;;37.95;18.98;;;15.40;99.90;;;;;;5096109;28;20028;-77
2022/10/29 09:08:37;;;;;;;40.53;20.95;;;15.40;99.90;;;;;;5107823;28;20028;-76
2022/10/29 09:11:22;;;;;;;37.17;19.40;;;15.40;99.90;;;;;;5088088;28;20028;-76
2022/10/29 09:14:03;;;;;;;45.40;20.40;;;15.50;99.90;;;;;;5091884;28;20063;-76
2022/10/29 09:16:54;;;;;;;46.25;21.20;;;15.50;99.90;;;;;;5079822;28;20077;-75
2022/10/29 09:19:26;;;;;;;41.53;20.77;;;15.50;99.90;;;;;;5094698;27;20035;-75
2022/10/29 09:22:30;;;;;;;39.80;19.75;;;15.60;99.90;;;;;;5073570;28;20102;-76
2022/10/29 09:25:02;;;;;;;38.25;20.00;;;15.60;99.90;;;;;;5090852;28;20078;-76
2022/10/29 09:27:52;;;;;;;36.55;18.05;;;15.60;99.90;;;;;;5086193;28;20465;-79
2022/10/29 09:30:19;;;;;;;33.30;17.10;;;15.70;99.90;;;;;;5084804;28;20372;-78
2022/10/29 09:32:56;;;;;;;37.97;19.15;;;15.70;99.90;;;;;;5095020;28;20024;-76
2022/10/29 09:35:37;;;;;;;39.05;19.48;;;15.70;99.90;;;;;;5104310;27;20127;-78
2022/10/29 09:38:21;;;;;;;39.75;19.23;;;15.80;99.90;;;;;;5069720;28;20028;-77
2022/10/29 09:40:46;;;;;;;44.60;19.63;;;16.00;99.90;;;;;;5084868;28;20120;-78
2022/10/29 09:43:34;;;;;;;46.90;20.70;;;16.00;99.90;;;;;;5099017;27;20035;-76
2022/10/29 09:46:12;;;;;;;41.05;19.42;;;16.10;99.90;;;;;;5077588;28;20024;-76
2022/10/29 09:48:41;;;;;;;38.72;18.92;;;16.10;99.90;;;;;;5087508;28;20083;-76
2022/10/29 09:51:19;;;;;;;40.58;19.50;;;16.20;99.90;;;;;;5090493;28;20024;-78
2022/10/29 09:53:45;;;;;;;30.83;18.02;;;16.30;99.90;;;;;;5065128;28;20107;-77
2022/10/29 09:56:10;;;;;;;38.30;19.67;;;16.30;99.90;;;;;;5094836;28;20099;-79
2022/10/29 09:58:40;;;;;;;42.33;18.92;;;16.50;99.90;;;;;;5069365;27;20060;-77
2022/10/29 10:01:06;;;;;;;31.45;16.60;;;16.40;99.90;;;;;;5087110;28;20031;-78
2022/10/29 10:03:41;;;;;;;28.40;12.30;;;16.40;99.90;;;;;;5084331;28;20031;-76
2022/10/29 10:06:10;;;;;;;37.67;19.45;;;16.50;99.90;;;;;;5090432;28;20449;-78
2022/10/29 10:09:05;;;;;;;38.90;18.88;;;16.50;99.90;;;;;;5077199;28;20046;-77
2022/10/29 10:11:38;;;;;;;34.53;18.80;;;16.50;99.90;;;;;;5078371;28;20579;-76
2022/10/29 10:14:16;;;;;;;32.50;17.00;;;16.50;99.90;;;;;;5101233;28;20568;-76
2022/10/29 10:16:42;;;;;;;36.22;18.10;;;16.50;99.90;;;;;;5095166;28;20016;-75
2022/10/29 10:19:22;;;;;;;36.97;17.77;;;16.50;99.90;;;;;;5094907;28;20600;-79
2022/10/29 10:21:56;;;;;;;29.98;15.43;;;16.60;99.90;;;;;;5084641;28;20028;-77
2022/10/29 10:24:34;;;;;;;36.38;17.85;;;16.60;99.90;;;;;;5081561;28;20067;-77
2022/10/29 10:27:00;;;;;;;26.83;15.80;;;16.50;99.90;;;;;;5096776;28;20059;-77
2022/10/29 10:29:27;;;;;;;30.60;16.35;;;16.60;99.90;;;;;;5092298;28;20020;-78
2022/10/29 10:31:55;;;;;;;29.77;15.05;;;16.80;99.90;;;;;;5092340;28;20024;-76
2022/10/29 10:34:24;;;;;;;32.70;15.82;;;16.90;99.90;;;;;;5068706;28;20023;-77
2022/10/29 10:36:53;;;;;;;32.25;15.98;;;16.90;99.90;;;;;;5072615;28;20494;-77
2022/10/29 10:39:31;;;;;;;34.13;16.15;;;16.80;99.90;;;;;;5093274;28;20383;-77
2022/10/29 10:42:00;;;;;;;34.83;15.82;;;16.80;99.90;;;;;;5076131;28;20032;-77
2022/10/29 10:44:26;;;;;;;34.25;15.85;;;16.70;99.90;;;;;;5079714;28;20036;-77
2022/10/29 10:46:55;;;;;;;36.15;15.98;;;16.70;99.90;;;;;;5097901;27;20049;-78
2022/10/29 10:49:36;;;;;;;35.60;14.80;;;16.60;99.90;;;;;;5094405;27;20043;-78
2022/10/29 10:52:05;;;;;;;30.88;15.77;;;16.70;99.90;;;;;;5086285;28;20032;-77
2022/10/29 10:54:31;;;;;;;25.38;13.20;;;16.70;99.90;;;;;;5098577;28;20024;-78
2022/10/29 10:57:18;;;;;;;23.95;13.18;;;16.80;99.90;;;;;;5080144;28;20122;-78
2022/10/29 11:00:01;;;;;;;27.90;14.55;;;16.80;99.90;;;;;;5089191;28;20031;-77
2022/10/29 11:02:49;;;;;;;26.58;12.88;;;16.80;99.90;;;;;;5086575;28;20101;-78
2022/10/29 11:05:49;;;;;;;28.25;13.55;;;16.80;99.90;;;;;;5097393;28;20516;-77
2022/10/29 11:08:36;;;;;;;30.33;13.75;;;16.90;99.90;;;;;;5066854;28;20043;-78
2022/10/29 11:11:09;;;;;;;27.67;13.45;;;16.80;99.90;;;;;;5083116;28;20090;-77
2022/10/29 11:13:40;;;;;;;28.95;13.95;;;16.80;99.90;;;;;;5105016;27;20047;-76
2022/10/29 11:16:14;;;;;;;;;;;16.90;99.90;;;;;;5087846;28;20020;-77
2022/10/29 11:19:09;;;;;;;36.65;13.93;;;16.90;99.90;;;;;;5101196;28;19908;-78
2022/10/29 11:21:45;;;;;;;23.92;12.55;;;16.80;99.90;;;;;;5099888;28;20027;-78
2022/10/29 11:24:16;;;;;;;28.50;13.32;;;16.90;99.90;;;;;;5084344;28;20028;-78
2022/10/29 11:26:47;;;;;;;;;;;16.90;99.90;;;;;;5096139;28;20090;-77
2022/10/29 11:29:42;;;;;;;31.42;13.80;;;17.00;99.90;;;;;;5090602;27;19912;-78
2022/10/29 11:32:26;;;;;;;30.90;14.10;;;17.00;99.90;;;;;;5072879;28;20027;-78
2022/10/29 11:35:08;;;;;;;35.80;13.32;;;17.10;99.90;;;;;;5083552;28;20024;-76
2022/10/29 11:37:44;;;;;;;22.77;11.27;;;17.10;99.90;;;;;;5083063;28;20268;-79
2022/10/29 11:40:52;;;;;;;31.48;12.73;;;17.20;99.90;;;;;;5087313;28;20036;-79
2022/10/29 11:43:20;;;;;;;18.55;9.95;;;17.20;99.90;;;;;;5097931;28;20076;-79
2022/10/29 11:46:12;;;;;;;19.25;10.13;;;17.20;99.90;;;;;;5082923;28;20399;-79
2022/10/29 11:49:03;;;;;;;23.95;11.48;;;17.30;99.90;;;;;;5084914;28;20019;-80
2022/10/29 11:51:50;;;;;;;26.83;12.63;;;17.20;99.90;;;;;;5084568;28;20790;-79
2022/10/29 11:54:31;;;;;;;23.35;10.73;;;17.20;99.90;;;;;;5097715;28;20555;-78
2022/10/29 11:57:17;;;;;;;19.35;9.55;;;17.20;99.90;;;;;;5084458;28;20028;-78
2022/10/29 11:59:51;;;;;;;22.48;10.40;;;17.30;99.90;;;;;;5088724;28;20040;-79
2022/10/29 12:02:38;;;;;;;23.40;11.13;;;17.30;99.90;;;;;;5102071;28;20024;-78
2022/10/29 12:05:19;;;;;;;22.77;10.38;;;17.30;99.90;;;;;;5103234;28;20457;-78
2022/10/29 12:08:06;;;;;;;25.55;10.90;;;17.30;99.90;;;;;;5094052;28;20031;-80
2022/10/29 12:10:42;;;;;;;21.40;10.45;;;17.30;99.90;;;;;;5078268;28;20024;-79
2022/10/29 12:13:16;;;;;;;18.65;9.20;;;17.40;99.90;;;;;;5079778;28;20144;-78
2022/10/29 12:16:16;;;;;;;32.13;11.98;;;17.50;99.90;;;;;;5095713;28;20639;-79
2022/10/29 12:19:06;;;;;;;23.33;11.13;;;17.50;99.90;;;;;;5093583;28;20023;-80
2022/10/29 12:21:45;;;;;;;19.05;8.48;;;17.50;99.90;;;;;;5077026;28;20039;-77
2022/10/29 12:24:29;;;;;;;19.08;8.48;;;17.60;99.90;;;;;;5079141;28;20596;-79
2022/10/29 12:27:01;;;;;;;16.58;7.57;;;17.60;99.90;;;;;;5076321;28;20023;-76
2022/10/29 12:30:04;;;;;;;20.25;8.45;;;17.70;99.90;;;;;;5086630;28;20169;-77
2022/10/29 12:32:34;;;;;;;23.05;9.73;;;17.70;99.90;;;;;;5078498;28;20028;-79
2022/10/29 12:35:19;;;;;;;16.98;8.57;;;17.70;99.90;;;;;;5077356;28;20036;-80
2022/10/29 12:38:31;;;;;;;17.67;8.20;;;17.70;99.90;;;;;;5081704;28;20028;-78
2022/10/29 12:41:19;;;;;;;17.83;7.55;;;17.70;99.90;;;;;;5069157;28;20127;-80
2022/10/29 12:43:46;;;;;;;18.92;7.70;;;17.70;99.90;;;;;;5093881;28;20119;-79
2022/10/29 12:46:39;;;;;;;16.77;8.48;;;17.60;99.90;;;;;;5091053;28;20483;-79
2022/10/29 12:49:09;;;;;;;15.52;7.45;;;17.70;99.90;;;;;;5098996;27;20123;-79
2022/10/29 12:51:53;;;;;;;16.30;7.50;;;17.70;99.90;;;;;;5106479;27;20051;-79
2022/10/29 12:54:40;;;;;;;17.15;8.23;;;17.80;99.90;;;;;;5109350;28;20023;-79